createdAt,value
2016-08-05T00:00:09.599Z,14.3
2016-08-05T00:00:19.604Z,14.3
2016-08-05T00:00:29.611Z,14.3
2016-08-05T00:00:39.614Z,14.3
2016-08-05T00:00:49.621Z,14.3
2016-08-05T00:01:00.379Z,14.3
2016-08-05T00:01:09.633Z,14.3
2016-08-05T00:01:19.647Z,14.3
2016-08-05T00:01:29.650Z,14.3
2016-08-05T00:01:40.409Z,14.3
2016-08-05T00:01:49.663Z,14.4
2016-08-05T00:01:59.676Z,14.2
2016-08-05T00:02:10.427Z,14.3
2016-08-05T00:02:19.689Z,14.4
2016-08-05T00:02:29.693Z,14.3
2016-08-05T00:02:40.448Z,14.2
2016-08-05T00:02:50.453Z,14.3
2016-08-05T00:02:59.707Z,14.3
2016-08-05T00:03:09.714Z,14.3
2016-08-05T00:03:19.719Z,14.3
2016-08-05T00:03:29.724Z,14.3
2016-08-05T00:03:39.741Z,14.4
2016-08-05T00:03:49.743Z,14.3
2016-08-05T00:03:59.746Z,14.3
2016-08-05T00:04:09.750Z,14.3
2016-08-05T00:04:19.757Z,14.4
2016-08-05T00:04:29.763Z,14.3
2016-08-05T00:04:39.773Z,14.4
2016-08-05T00:04:50.534Z,14.3
2016-08-05T00:05:00.542Z,14.3
2016-08-05T00:05:09.795Z,14.4
2016-08-05T00:05:19.799Z,14.3
2016-08-05T00:05:29.805Z,14.4
2016-08-05T00:05:39.811Z,14.3
2016-08-05T00:05:49.821Z,14.4
2016-08-05T00:05:59.836Z,14.4
2016-08-05T00:06:09.833Z,14.3
2016-08-05T00:06:19.837Z,14.4
2016-08-05T00:06:29.843Z,14.4
2016-08-05T00:06:39.851Z,14.4
2016-08-05T00:06:50.075Z,14.3
2016-08-05T00:06:59.870Z,14.4
2016-08-05T00:07:09.868Z,14.4
2016-08-05T00:07:19.878Z,14.3
2016-08-05T00:07:29.884Z,14.4
2016-08-05T00:07:39.891Z,14.3
2016-08-05T00:07:49.901Z,14.4
2016-08-05T00:07:59.904Z,14.3
2016-08-05T00:08:09.916Z,14.3
2016-08-05T00:08:19.918Z,14.4
2016-08-05T00:08:29.927Z,14.4
2016-08-05T00:08:39.929Z,14.3
2016-08-05T00:08:49.938Z,14.3
2016-08-05T00:08:59.946Z,14.3
2016-08-05T00:09:09.951Z,14.4
2016-08-05T00:09:19.962Z,14.3
2016-08-05T00:09:29.965Z,14.3
2016-08-05T00:09:39.979Z,14.4
2016-08-05T00:09:49.980Z,14.4
2016-08-05T00:10:10.059Z,14.3
2016-08-05T00:10:20.002Z,14.4
2016-08-05T00:10:30.004Z,14.3
2016-08-05T00:10:40.012Z,14.3
2016-08-05T00:10:50.019Z,14.3
2016-08-05T00:11:00.026Z,14.3
2016-08-05T00:11:10.034Z,14.3
2016-08-05T00:11:20.788Z,14.4
2016-08-05T00:11:30.797Z,14.3
2016-08-05T00:11:40.059Z,14.4
2016-08-05T00:11:50.058Z,14.3
2016-08-05T00:12:00.821Z,14.3
2016-08-05T00:12:10.079Z,14.3
2016-08-05T00:12:20.833Z,14.3
2016-08-05T00:12:30.087Z,14.3
2016-08-05T00:12:40.099Z,14.3
2016-08-05T00:12:50.849Z,14.3
2016-08-05T00:13:00.858Z,14.3
2016-08-05T00:13:10.115Z,14.3
2016-08-05T00:13:20.120Z,14.3
2016-08-05T00:13:30.127Z,14.3
2016-08-05T00:13:40.133Z,14.3
2016-08-05T00:13:50.152Z,14.3
2016-08-05T00:14:00.149Z,14.2
2016-08-05T00:14:10.707Z,14.3
2016-08-05T00:14:20.164Z,14.3
2016-08-05T00:14:30.166Z,14.3
2016-08-05T00:14:40.924Z,14.3
2016-08-05T00:14:50.180Z,14.2
2016-08-05T00:15:00.190Z,14.2
2016-08-05T00:15:10.195Z,14.3
2016-08-05T00:15:20.950Z,14.2
2016-08-05T00:15:30.205Z,14.2
2016-08-05T00:15:40.214Z,14.2
2016-08-05T00:15:50.220Z,14.2
2016-08-05T00:16:00.226Z,14.2
2016-08-05T00:16:10.232Z,14.2
2016-08-05T00:16:20.246Z,14.3
2016-08-05T00:16:30.246Z,14.2
2016-08-05T00:16:40.251Z,14.2
2016-08-05T00:16:50.262Z,14.3
2016-08-05T00:17:00.269Z,14.3
2016-08-05T00:17:10.277Z,14.2
2016-08-05T00:17:21.031Z,14.3
2016-08-05T00:17:30.285Z,14.2
2016-08-05T00:17:40.294Z,14.3
2016-08-05T00:17:50.300Z,14.2
2016-08-05T00:18:00.315Z,14.2
2016-08-05T00:18:10.312Z,14.2
2016-08-05T00:18:20.319Z,14.2
2016-08-05T00:18:30.328Z,14.2
2016-08-05T00:18:40.333Z,14.2
2016-08-05T00:18:50.339Z,14.2
2016-08-05T00:19:00.346Z,14.2
2016-08-05T00:19:11.105Z,14.2
2016-08-05T00:19:20.360Z,14.2
2016-08-05T00:19:31.118Z,14.2
2016-08-05T00:19:40.373Z,14.2
2016-08-05T00:20:00.383Z,14.2
2016-08-05T00:20:11.146Z,14.2
2016-08-05T00:20:21.152Z,14.2
2016-08-05T00:20:31.157Z,14.2
2016-08-05T00:20:40.412Z,14.3
2016-08-05T00:20:50.423Z,14.2
2016-08-05T00:21:00.425Z,14.2
2016-08-05T00:21:10.436Z,14.2
2016-08-05T00:21:20.439Z,14.2
2016-08-05T00:21:30.454Z,14.2
2016-08-05T00:21:40.453Z,14.2
2016-08-05T00:21:50.463Z,14.2
2016-08-05T00:22:00.465Z,14.2
2016-08-05T00:22:10.473Z,14.2
2016-08-05T00:22:20.478Z,14.2
2016-08-05T00:22:30.485Z,14.1
2016-08-05T00:22:40.494Z,14.2
2016-08-05T00:22:50.502Z,14.1
2016-08-05T00:23:00.514Z,14.1
2016-08-05T00:23:10.515Z,14.1
2016-08-05T00:23:20.517Z,14.1
2016-08-05T00:23:30.524Z,14.1
2016-08-05T00:23:41.613Z,14.2
2016-08-05T00:23:50.537Z,14.1
2016-08-05T00:24:00.547Z,14.1
2016-08-05T00:24:10.548Z,14.1
2016-08-05T00:24:20.565Z,14.1
2016-08-05T00:24:30.569Z,14.1
2016-08-05T00:24:40.571Z,14
2016-08-05T00:24:50.577Z,14.1
2016-08-05T00:25:00.584Z,14.2
2016-08-05T00:25:34.619Z,14
2016-08-05T00:25:44.578Z,14
2016-08-05T00:25:54.583Z,14.1
2016-08-05T00:26:04.591Z,14.1
2016-08-05T00:26:15.350Z,14
2016-08-05T00:26:24.939Z,14
2016-08-05T00:26:34.619Z,14
2016-08-05T00:26:44.616Z,14
2016-08-05T00:26:54.624Z,14.1
2016-08-05T00:27:04.628Z,14
2016-08-05T00:27:15.386Z,14
2016-08-05T00:27:24.643Z,14.1
2016-08-05T00:27:34.649Z,14.1
2016-08-05T00:27:44.657Z,14
2016-08-05T00:27:54.661Z,14
2016-08-05T00:28:05.418Z,14.1
2016-08-05T00:28:15.427Z,14.1
2016-08-05T00:28:24.689Z,14.1
2016-08-05T00:28:34.694Z,14.1
2016-08-05T00:28:44.697Z,14.1
2016-08-05T00:28:54.706Z,14.1
2016-08-05T00:29:04.715Z,14.1
2016-08-05T00:29:14.723Z,14.1
2016-08-05T00:29:24.718Z,14
2016-08-05T00:29:34.739Z,14
2016-08-05T00:29:44.735Z,14.1
2016-08-05T00:29:55.496Z,13.9
2016-08-05T00:30:04.752Z,14
2016-08-05T00:30:17.707Z,14
2016-08-05T00:30:24.758Z,13.9
2016-08-05T00:30:34.805Z,14
2016-08-05T00:30:44.774Z,13.9
2016-08-05T00:30:54.780Z,13.9
2016-08-05T00:31:04.794Z,13.9
2016-08-05T00:31:15.545Z,14
2016-08-05T00:31:25.252Z,14
2016-08-05T00:31:34.806Z,14
2016-08-05T00:31:44.813Z,14
2016-08-05T00:31:55.574Z,13.9
2016-08-05T00:32:05.579Z,13.9
2016-08-05T00:32:14.836Z,13.9
2016-08-05T00:32:25.590Z,13.9
2016-08-05T00:32:34.849Z,13.9
2016-08-05T00:32:44.860Z,13.9
2016-08-05T00:32:54.861Z,14
2016-08-05T00:33:04.865Z,13.9
2016-08-05T00:33:14.873Z,14
2016-08-05T00:33:24.881Z,13.9
2016-08-05T00:33:34.887Z,13.9
2016-08-05T00:33:45.659Z,14
2016-08-05T00:33:54.901Z,13.9
2016-08-05T00:34:04.909Z,13.9
2016-08-05T00:34:14.912Z,13.9
2016-08-05T00:34:24.919Z,14
2016-08-05T00:34:34.925Z,13.9
2016-08-05T00:34:44.929Z,13.9
2016-08-05T00:34:54.938Z,13.9
2016-08-05T00:35:04.952Z,13.9
2016-08-05T00:35:14.952Z,14
2016-08-05T00:35:25.710Z,13.9
2016-08-05T00:35:34.967Z,13.9
2016-08-05T00:35:44.985Z,14
2016-08-05T00:35:54.984Z,14
2016-08-05T00:36:04.990Z,13.9
2016-08-05T00:36:14.989Z,13.9
2016-08-05T00:36:24.999Z,13.9
2016-08-05T00:36:35.005Z,14
2016-08-05T00:36:45.766Z,13.9
2016-08-05T00:36:55.771Z,13.9
2016-08-05T00:37:05.027Z,14
2016-08-05T00:37:15.783Z,13.9
2016-08-05T00:37:26.028Z,14
2016-08-05T00:37:35.045Z,14
2016-08-05T00:37:45.049Z,13.9
2016-08-05T00:38:01.371Z,13.9
2016-08-05T00:38:05.800Z,14
2016-08-05T00:38:15.759Z,13.9
2016-08-05T00:38:25.774Z,13.9
2016-08-05T00:38:35.778Z,13.9
2016-08-05T00:38:45.785Z,13.9
2016-08-05T00:38:55.790Z,13.9
2016-08-05T00:39:05.794Z,13.9
2016-08-05T00:39:15.803Z,14
2016-08-05T00:39:25.807Z,13.9
2016-08-05T00:39:35.814Z,14
2016-08-05T00:39:45.821Z,13.9
2016-08-05T00:39:55.834Z,14
2016-08-05T00:40:05.836Z,13.9
2016-08-05T00:40:25.847Z,14
2016-08-05T00:40:36.607Z,13.9
2016-08-05T00:40:45.862Z,13.9
2016-08-05T00:40:55.870Z,13.9
2016-08-05T00:41:05.875Z,13.9
2016-08-05T00:41:15.883Z,13.9
2016-08-05T00:41:25.890Z,13.9
2016-08-05T00:41:35.894Z,13.9
2016-08-05T00:41:45.901Z,13.9
2016-08-05T00:41:55.908Z,13.9
2016-08-05T00:42:05.911Z,13.9
2016-08-05T00:42:15.922Z,13.9
2016-08-05T00:42:25.928Z,13.9
2016-08-05T00:42:35.933Z,14
2016-08-05T00:42:45.941Z,13.9
2016-08-05T00:42:55.950Z,13.9
2016-08-05T00:43:05.956Z,13.9
2016-08-05T00:43:16.713Z,13.9
2016-08-05T00:43:25.967Z,13.9
2016-08-05T00:43:35.973Z,13.9
2016-08-05T00:43:45.978Z,13.9
2016-08-05T00:43:55.992Z,13.9
2016-08-05T00:44:06.744Z,13.9
2016-08-05T00:44:16.001Z,13.9
2016-08-05T00:44:26.031Z,13.9
2016-08-05T00:44:36.020Z,13.9
2016-08-05T00:44:46.018Z,13.8
2016-08-05T00:44:56.024Z,13.9
2016-08-05T00:45:06.034Z,13.9
2016-08-05T00:45:16.043Z,13.9
2016-08-05T00:45:26.797Z,13.9
2016-08-05T00:45:36.054Z,13.9
2016-08-05T00:45:46.058Z,13.9
2016-08-05T00:45:56.069Z,13.9
2016-08-05T00:46:06.826Z,13.9
2016-08-05T00:46:16.834Z,13.9
2016-08-05T00:46:26.838Z,13.9
2016-08-05T00:46:36.091Z,13.9
2016-08-05T00:46:46.096Z,13.9
2016-08-05T00:46:56.862Z,13.8
2016-08-05T00:47:06.115Z,13.9
2016-08-05T00:47:16.873Z,13.8
2016-08-05T00:47:26.876Z,13.8
2016-08-05T00:47:36.129Z,13.8
2016-08-05T00:47:46.139Z,13.8
2016-08-05T00:47:56.145Z,13.8
2016-08-05T00:48:06.155Z,13.8
2016-08-05T00:48:16.160Z,13.9
2016-08-05T00:48:26.170Z,13.8
2016-08-05T00:48:36.178Z,13.8
2016-08-05T00:48:46.929Z,13.8
2016-08-05T00:48:56.184Z,13.9
2016-08-05T00:49:06.944Z,13.9
2016-08-05T00:49:16.199Z,13.8
2016-08-05T00:49:26.205Z,13.8
2016-08-05T00:49:36.209Z,13.9
2016-08-05T00:49:46.224Z,13.8
2016-08-05T00:49:56.225Z,13.8
2016-08-05T00:50:06.232Z,13.8
2016-08-05T00:50:16.237Z,13.8
2016-08-05T00:50:26.248Z,13.8
2016-08-05T00:50:36.250Z,13.7
2016-08-05T00:50:46.264Z,13.8
2016-08-05T00:50:57.022Z,13.8
2016-08-05T00:51:06.270Z,13.8
2016-08-05T00:51:16.277Z,13.8
2016-08-05T00:51:26.286Z,13.8
2016-08-05T00:51:36.291Z,13.8
2016-08-05T00:51:46.298Z,13.8
2016-08-05T00:51:56.304Z,13.8
2016-08-05T00:52:06.310Z,13.8
2016-08-05T00:52:16.317Z,13.8
2016-08-05T00:52:26.324Z,13.9
2016-08-05T00:52:36.329Z,13.8
2016-08-05T00:52:46.337Z,13.9
2016-08-05T00:52:56.343Z,13.9
2016-08-05T00:53:06.348Z,13.8
2016-08-05T00:53:16.357Z,13.9
2016-08-05T00:53:26.361Z,13.8
2016-08-05T00:53:36.370Z,13.7
2016-08-05T00:53:46.376Z,13.8
2016-08-05T00:53:56.385Z,13.7
2016-08-05T00:54:06.392Z,13.8
2016-08-05T00:54:16.396Z,13.7
2016-08-05T00:54:26.404Z,13.8
2016-08-05T00:54:36.411Z,13.7
2016-08-05T00:54:46.417Z,13.7
2016-08-05T00:54:56.462Z,13.7
2016-08-05T00:55:06.429Z,13.8
2016-08-05T00:55:26.451Z,13.8
2016-08-05T00:55:36.451Z,13.8
2016-08-05T00:55:46.458Z,13.8
2016-08-05T00:55:56.462Z,13.7
2016-08-05T00:56:06.469Z,13.8
2016-08-05T00:56:16.475Z,13.8
2016-08-05T00:56:26.484Z,13.8
2016-08-05T00:56:36.489Z,13.8
2016-08-05T00:56:46.499Z,13.8
2016-08-05T00:56:56.502Z,13.7
2016-08-05T00:57:07.262Z,13.7
2016-08-05T00:57:16.516Z,13.7
2016-08-05T00:57:26.522Z,13.7
2016-08-05T00:57:37.296Z,13.7
2016-08-05T00:57:46.534Z,13.8
2016-08-05T00:57:56.542Z,13.8
2016-08-05T00:58:06.550Z,13.8
2016-08-05T00:58:16.557Z,13.7
2016-08-05T00:58:26.563Z,13.7
2016-08-05T00:58:36.576Z,13.7
2016-08-05T00:58:46.577Z,13.8
2016-08-05T00:58:56.579Z,13.7
2016-08-05T00:59:06.596Z,13.7
2016-08-05T00:59:16.595Z,13.8
2016-08-05T00:59:26.601Z,13.7
2016-08-05T00:59:36.627Z,13.7
2016-08-05T00:59:46.625Z,13.8
2016-08-05T00:59:57.371Z,13.7
2016-08-05T01:00:06.624Z,13.7
2016-08-05T01:00:17.385Z,13.7
2016-08-05T01:00:26.643Z,13.8
2016-08-05T01:00:36.645Z,13.8
2016-08-05T01:00:46.653Z,13.7
2016-08-05T01:00:56.664Z,13.7
2016-08-05T01:01:06.669Z,13.7
2016-08-05T01:01:16.678Z,13.7
2016-08-05T01:01:26.680Z,13.7
2016-08-05T01:01:36.688Z,13.8
2016-08-05T01:01:46.696Z,13.7
2016-08-05T01:01:56.705Z,13.7
2016-08-05T01:02:07.457Z,13.7
2016-08-05T01:02:16.715Z,13.7
2016-08-05T01:02:27.473Z,13.7
2016-08-05T01:02:36.727Z,13.6
2016-08-05T01:02:47.485Z,13.7
2016-08-05T01:02:56.751Z,13.7
2016-08-05T01:03:06.745Z,13.7
2016-08-05T01:03:17.514Z,13.6
2016-08-05T01:03:26.760Z,13.6
2016-08-05T01:03:36.767Z,13.6
2016-08-05T01:03:46.772Z,13.8
2016-08-05T01:03:57.529Z,13.7
2016-08-05T01:04:06.784Z,13.7
2016-08-05T01:04:16.790Z,13.7
2016-08-05T01:04:26.800Z,13.7
2016-08-05T01:04:36.801Z,13.7
2016-08-05T01:04:46.814Z,13.7
2016-08-05T01:04:56.820Z,13.7
2016-08-05T01:05:07.578Z,13.7
2016-08-05T01:05:16.833Z,13.7
2016-08-05T01:05:27.588Z,13.7
2016-08-05T01:05:36.844Z,13.7
2016-08-05T01:05:46.853Z,13.7
2016-08-05T01:05:56.862Z,13.6
2016-08-05T01:06:06.863Z,13.7
2016-08-05T01:06:16.871Z,13.7
2016-08-05T01:06:26.878Z,13.7
2016-08-05T01:06:37.636Z,13.7
2016-08-05T01:06:46.892Z,13.7
2016-08-05T01:06:56.901Z,13.7
2016-08-05T01:07:06.903Z,13.7
2016-08-05T01:07:16.911Z,13.7
2016-08-05T01:07:26.920Z,13.7
2016-08-05T01:07:36.924Z,13.7
2016-08-05T01:07:46.931Z,13.7
2016-08-05T01:07:56.938Z,13.7
2016-08-05T01:08:06.949Z,13.7
2016-08-05T01:08:16.949Z,13.6
2016-08-05T01:08:27.712Z,13.7
2016-08-05T01:08:37.717Z,13.7
2016-08-05T01:08:46.967Z,13.7
2016-08-05T01:08:57.728Z,13.6
2016-08-05T01:09:06.983Z,13.7
2016-08-05T01:09:16.993Z,13.7
2016-08-05T01:09:26.995Z,13.7
2016-08-05T01:09:37.005Z,13.7
2016-08-05T01:09:47.009Z,13.7
2016-08-05T01:09:57.773Z,13.7
2016-08-05T01:10:07.774Z,13.7
2016-08-05T01:10:27.036Z,13.7
2016-08-05T01:10:37.043Z,13.6
2016-08-05T01:10:47.050Z,13.7
2016-08-05T01:10:57.056Z,13.7
2016-08-05T01:11:07.061Z,13.6
2016-08-05T01:11:17.068Z,13.7
2016-08-05T01:11:27.828Z,13.7
2016-08-05T01:11:37.089Z,13.7
2016-08-05T01:11:47.087Z,13.7
2016-08-05T01:11:57.094Z,13.6
2016-08-05T01:12:07.100Z,13.7
2016-08-05T01:12:17.108Z,13.7
2016-08-05T01:12:27.113Z,13.7
2016-08-05T01:12:37.873Z,13.6
2016-08-05T01:12:47.129Z,13.6
2016-08-05T01:12:57.889Z,13.6
2016-08-05T01:13:07.891Z,13.6
2016-08-05T01:13:17.151Z,13.6
2016-08-05T01:13:27.907Z,13.6
2016-08-05T01:13:37.162Z,13.7
2016-08-05T01:13:47.168Z,13.6
2016-08-05T01:13:57.177Z,13.6
2016-08-05T01:14:07.181Z,13.6
2016-08-05T01:14:17.185Z,13.6
2016-08-05T01:14:27.194Z,13.6
2016-08-05T01:14:37.204Z,13.6
2016-08-05T01:14:47.208Z,13.6
2016-08-05T01:14:57.216Z,13.6
2016-08-05T01:15:07.225Z,13.6
2016-08-05T01:15:17.979Z,13.6
2016-08-05T01:15:27.985Z,13.6
2016-08-05T01:15:37.239Z,13.6
2016-08-05T01:15:47.999Z,13.5
2016-08-05T01:15:58.006Z,13.5
2016-08-05T01:16:07.262Z,13.6
2016-08-05T01:16:18.017Z,13.6
2016-08-05T01:16:27.272Z,13.6
2016-08-05T01:16:37.276Z,13.6
2016-08-05T01:16:47.287Z,13.6
2016-08-05T01:16:58.043Z,13.6
2016-08-05T01:17:07.299Z,13.6
2016-08-05T01:17:17.309Z,13.6
2016-08-05T01:17:27.309Z,13.6
2016-08-05T01:17:37.324Z,13.6
2016-08-05T01:17:48.079Z,13.6
2016-08-05T01:17:57.331Z,13.5
2016-08-05T01:18:07.338Z,13.6
2016-08-05T01:18:17.343Z,13.6
2016-08-05T01:18:27.351Z,13.6
2016-08-05T01:18:37.357Z,13.5
2016-08-05T01:18:47.366Z,13.6
2016-08-05T01:18:57.376Z,13.6
2016-08-05T01:19:07.379Z,13.6
2016-08-05T01:19:18.136Z,13.6
2016-08-05T01:19:27.393Z,13.6
2016-08-05T01:19:37.395Z,13.5
2016-08-05T01:19:47.403Z,13.6
2016-08-05T01:19:57.420Z,13.5
2016-08-05T01:20:07.418Z,13.6
2016-08-05T01:20:17.425Z,13.6
2016-08-05T01:20:27.440Z,13.6
2016-08-05T01:20:37.437Z,13.6
2016-08-05T01:20:47.442Z,13.6
2016-08-05T01:20:57.468Z,13.6
2016-08-05T01:21:07.459Z,13.6
2016-08-05T01:21:17.460Z,13.6
2016-08-05T01:21:27.467Z,13.7
2016-08-05T01:21:37.475Z,13.7
2016-08-05T01:21:47.484Z,13.7
2016-08-05T01:21:57.490Z,13.6
2016-08-05T01:22:07.493Z,13.6
2016-08-05T01:22:17.505Z,13.6
2016-08-05T01:22:27.509Z,13.7
2016-08-05T01:22:37.516Z,13.6
2016-08-05T01:22:47.528Z,13.6
2016-08-05T01:22:57.529Z,13.6
2016-08-05T01:23:08.289Z,13.6
2016-08-05T01:23:17.548Z,13.6
2016-08-05T01:23:27.548Z,13.7
2016-08-05T01:23:37.553Z,13.7
2016-08-05T01:23:47.562Z,13.6
2016-08-05T01:23:58.328Z,13.6
2016-08-05T01:24:07.576Z,13.6
2016-08-05T01:24:17.586Z,13.6
2016-08-05T01:24:28.345Z,13.6
2016-08-05T01:24:37.596Z,13.6
2016-08-05T01:24:47.599Z,13.6
2016-08-05T01:24:57.606Z,13.5
2016-08-05T01:25:07.615Z,13.6
2016-08-05T01:25:37.632Z,13.6
2016-08-05T01:25:47.643Z,13.7
2016-08-05T01:25:57.650Z,13.7
2016-08-05T01:26:07.652Z,13.6
2016-08-05T01:26:17.665Z,13.7
2016-08-05T01:26:27.667Z,13.6
2016-08-05T01:26:37.673Z,13.7
2016-08-05T01:26:47.680Z,13.7
2016-08-05T01:26:58.446Z,13.5
2016-08-05T01:27:07.695Z,13.6
2016-08-05T01:27:17.702Z,13.6
2016-08-05T01:27:27.713Z,13.6
2016-08-05T01:27:38.463Z,13.6
2016-08-05T01:27:47.718Z,13.6
2016-08-05T01:27:57.731Z,13.7
2016-08-05T01:28:07.735Z,13.6
2016-08-05T01:28:17.739Z,13.6
2016-08-05T01:28:27.748Z,13.6
2016-08-05T01:28:37.751Z,13.5
2016-08-05T01:28:47.759Z,13.5
2016-08-05T01:28:58.526Z,13.6
2016-08-05T01:29:07.771Z,13.6
2016-08-05T01:29:18.531Z,13.6
2016-08-05T01:29:27.785Z,13.6
2016-08-05T01:29:37.790Z,13.6
2016-08-05T01:29:47.808Z,13.6
2016-08-05T01:29:57.809Z,13.6
2016-08-05T01:30:08.564Z,13.5
2016-08-05T01:30:18.571Z,13.6
2016-08-05T01:30:28.578Z,13.6
2016-08-05T01:30:37.834Z,13.6
2016-08-05T01:30:48.588Z,13.6
2016-08-05T01:30:57.849Z,13.5
2016-08-05T01:31:08.602Z,13.6
2016-08-05T01:31:17.857Z,13.6
2016-08-05T01:31:27.866Z,13.6
2016-08-05T01:31:37.879Z,13.6
2016-08-05T01:31:48.627Z,13.5
2016-08-05T01:31:57.882Z,13.6
2016-08-05T01:32:08.639Z,13.6
2016-08-05T01:32:18.651Z,13.6
2016-08-05T01:32:27.901Z,13.5
2016-08-05T01:32:37.914Z,13.5
2016-08-05T01:32:47.917Z,13.5
2016-08-05T01:32:57.921Z,13.5
2016-08-05T01:33:07.933Z,13.6
2016-08-05T01:33:17.936Z,13.5
2016-08-05T01:33:27.941Z,13.6
2016-08-05T01:33:37.947Z,13.5
2016-08-05T01:33:47.955Z,13.6
2016-08-05T01:33:57.961Z,13.5
2016-08-05T01:34:07.971Z,13.5
2016-08-05T01:34:17.976Z,13.6
2016-08-05T01:34:27.983Z,13.5
2016-08-05T01:34:37.989Z,13.6
2016-08-05T01:34:47.993Z,13.6
2016-08-05T01:34:58.001Z,13.6
2016-08-05T01:35:08.006Z,13.7
2016-08-05T01:35:18.014Z,13.7
2016-08-05T01:35:28.021Z,13.6
2016-08-05T01:35:38.030Z,13.7
2016-08-05T01:35:48.037Z,13.6
2016-08-05T01:35:58.795Z,13.6
2016-08-05T01:36:08.047Z,13.6
2016-08-05T01:36:18.059Z,13.7
2016-08-05T01:36:28.061Z,13.7
2016-08-05T01:36:38.067Z,13.7
2016-08-05T01:36:48.075Z,13.6
2016-08-05T01:36:58.830Z,13.6
2016-08-05T01:37:08.084Z,13.5
2016-08-05T01:37:18.093Z,13.5
2016-08-05T01:37:28.853Z,13.6
2016-08-05T01:37:38.106Z,13.6
2016-08-05T01:37:48.119Z,13.6
2016-08-05T01:37:58.869Z,13.6
2016-08-05T01:38:08.881Z,13.6
2016-08-05T01:38:18.130Z,13.6
2016-08-05T01:38:28.141Z,13.6
2016-08-05T01:38:38.144Z,13.6
2016-08-05T01:38:48.153Z,13.6
2016-08-05T01:38:58.160Z,13.6
2016-08-05T01:39:08.165Z,13.6
2016-08-05T01:39:18.925Z,13.6
2016-08-05T01:39:28.178Z,13.6
2016-08-05T01:39:38.184Z,13.6
2016-08-05T01:39:48.943Z,13.7
2016-08-05T01:39:58.207Z,13.5
2016-08-05T01:40:08.205Z,13.6
2016-08-05T01:40:18.210Z,13.5
2016-08-05T01:40:38.225Z,13.6
2016-08-05T01:40:48.230Z,13.6
2016-08-05T01:40:59.001Z,13.6
2016-08-05T01:41:08.250Z,13.6
2016-08-05T01:41:18.256Z,13.5
2016-08-05T01:41:28.260Z,13.5
2016-08-05T01:41:39.019Z,13.6
2016-08-05T01:41:48.273Z,13.6
2016-08-05T01:41:58.278Z,13.5
2016-08-05T01:42:08.284Z,13.6
2016-08-05T01:42:18.289Z,13.5
2016-08-05T01:42:28.300Z,13.6
2016-08-05T01:42:38.305Z,13.6
2016-08-05T01:42:48.310Z,13.6
2016-08-05T01:42:58.318Z,13.5
2016-08-05T01:43:08.322Z,13.6
2016-08-05T01:43:18.329Z,13.5
2016-08-05T01:43:28.336Z,13.6
2016-08-05T01:43:38.343Z,13.6
2016-08-05T01:43:48.355Z,13.6
2016-08-05T01:43:58.359Z,13.6
2016-08-05T01:44:08.362Z,13.6
2016-08-05T01:44:19.126Z,13.6
2016-08-05T01:44:29.127Z,13.6
2016-08-05T01:44:38.382Z,13.6
2016-08-05T01:44:48.395Z,13.5
2016-08-05T01:44:58.393Z,13.6
2016-08-05T01:45:08.399Z,13.6
2016-08-05T01:45:18.407Z,13.6
2016-08-05T01:45:28.413Z,13.6
2016-08-05T01:45:38.421Z,13.5
2016-08-05T01:45:48.443Z,13.5
2016-08-05T01:45:58.435Z,13.6
2016-08-05T01:46:08.443Z,13.5
2016-08-05T01:46:18.446Z,13.4
2016-08-05T01:46:28.455Z,13.5
2016-08-05T01:46:38.460Z,13.6
2016-08-05T01:46:48.475Z,13.5
2016-08-05T01:46:58.475Z,13.5
2016-08-05T01:47:08.483Z,13.6
2016-08-05T01:47:18.494Z,13.4
2016-08-05T01:47:28.493Z,13.5
2016-08-05T01:47:39.252Z,13.6
2016-08-05T01:47:48.511Z,13.5
2016-08-05T01:47:58.514Z,13.6
2016-08-05T01:48:08.520Z,13.5
2016-08-05T01:48:19.298Z,13.5
2016-08-05T01:48:28.533Z,13.5
2016-08-05T01:48:38.538Z,13.5
2016-08-05T01:48:49.298Z,13.5
2016-08-05T01:48:58.553Z,13.5
2016-08-05T01:49:08.560Z,13.5
2016-08-05T01:49:19.316Z,13.5
2016-08-05T01:49:28.581Z,13.5
2016-08-05T01:49:38.582Z,13.4
2016-08-05T01:49:49.340Z,13.5
2016-08-05T01:49:58.590Z,13.4
2016-08-05T01:50:09.349Z,13.5
2016-08-05T01:50:18.604Z,13.5
2016-08-05T01:50:28.610Z,13.5
2016-08-05T01:50:38.629Z,13.5
2016-08-05T01:50:48.622Z,13.5
2016-08-05T01:50:58.631Z,13.5
2016-08-05T01:51:08.637Z,13.5
2016-08-05T01:51:18.657Z,13.5
2016-08-05T01:51:28.648Z,13.5
2016-08-05T01:51:38.653Z,13.5
2016-08-05T01:51:48.665Z,13.6
2016-08-05T01:51:58.678Z,13.6
2016-08-05T01:52:09.432Z,13.6
2016-08-05T01:52:18.685Z,13.6
2016-08-05T01:52:28.687Z,13.6
2016-08-05T01:52:38.693Z,13.6
2016-08-05T01:52:48.702Z,13.5
2016-08-05T01:52:58.707Z,13.6
2016-08-05T01:53:09.467Z,13.5
2016-08-05T01:53:18.722Z,13.5
2016-08-05T01:53:28.730Z,13.5
2016-08-05T01:53:38.735Z,13.6
2016-08-05T01:53:48.744Z,13.5
2016-08-05T01:53:58.749Z,13.6
2016-08-05T01:54:08.753Z,13.4
2016-08-05T01:54:18.762Z,13.6
2016-08-05T01:54:28.769Z,13.5
2016-08-05T01:54:38.774Z,13.6
2016-08-05T01:54:48.778Z,13.5
2016-08-05T01:54:58.786Z,13.4
2016-08-05T01:55:08.798Z,13.6
2016-08-05T01:55:18.800Z,13.6
2016-08-05T01:55:39.563Z,13.5
2016-08-05T01:55:48.819Z,13.5
2016-08-05T01:55:58.840Z,13.5
2016-08-05T01:56:08.834Z,13.5
2016-08-05T01:56:19.592Z,13.4
2016-08-05T01:56:29.596Z,13.5
2016-08-05T01:56:39.604Z,13.5
2016-08-05T01:56:48.860Z,13.5
2016-08-05T01:56:58.865Z,13.5
2016-08-05T01:57:08.871Z,13.5
2016-08-05T01:57:19.634Z,13.5
2016-08-05T01:57:28.889Z,13.5
2016-08-05T01:57:38.895Z,13.5
2016-08-05T01:57:48.906Z,13.5
2016-08-05T01:57:58.909Z,13.5
2016-08-05T01:58:08.914Z,13.5
2016-08-05T01:58:18.919Z,13.4
2016-08-05T01:58:28.927Z,13.5
2016-08-05T01:58:38.933Z,13.5
2016-08-05T01:58:48.945Z,13.4
2016-08-05T01:58:58.950Z,13.4
2016-08-05T01:59:08.953Z,13.4
2016-08-05T01:59:19.709Z,13.4
2016-08-05T01:59:28.965Z,13.5
2016-08-05T01:59:39.723Z,13.5
2016-08-05T01:59:48.979Z,13.4
2016-08-05T01:59:58.987Z,13.5
2016-08-05T02:00:08.991Z,13.4
2016-08-05T02:00:19.000Z,13.4
2016-08-05T02:00:29.005Z,13.4
2016-08-05T02:00:39.009Z,13.4
2016-08-05T02:00:49.017Z,13.4
2016-08-05T02:00:59.030Z,13.4
2016-08-05T02:01:09.029Z,13.4
2016-08-05T02:01:19.036Z,13.4
2016-08-05T02:01:29.043Z,13.4
2016-08-05T02:01:39.049Z,13.5
2016-08-05T02:01:49.071Z,13.5
2016-08-05T02:01:59.060Z,13.5
2016-08-05T02:02:09.068Z,13.4
2016-08-05T02:02:19.077Z,13.4
2016-08-05T02:02:29.084Z,13.3
2016-08-05T02:02:39.102Z,13.4
2016-08-05T02:02:49.093Z,13.3
2016-08-05T02:02:59.100Z,13.4
2016-08-05T02:03:09.111Z,13.4
2016-08-05T02:03:19.868Z,13.4
2016-08-05T02:03:29.123Z,13.4
2016-08-05T02:03:39.130Z,13.4
2016-08-05T02:03:49.135Z,13.4
2016-08-05T02:03:59.894Z,13.4
2016-08-05T02:04:09.146Z,13.4
2016-08-05T02:04:19.155Z,13.3
2016-08-05T02:04:29.160Z,13.3
2016-08-05T02:04:39.172Z,13.4
2016-08-05T02:04:49.176Z,13.3
2016-08-05T02:04:59.178Z,13.4
2016-08-05T02:05:09.189Z,13.3
2016-08-05T02:05:19.195Z,13.3
2016-08-05T02:05:29.202Z,13.4
2016-08-05T02:05:39.208Z,13.3
2016-08-05T02:05:49.214Z,13.3
2016-08-05T02:05:59.971Z,13.3
2016-08-05T02:06:09.225Z,13.3
2016-08-05T02:06:19.231Z,13.3
2016-08-05T02:06:29.240Z,13.4
2016-08-05T02:06:39.251Z,13.3
2016-08-05T02:06:49.258Z,13.3
2016-08-05T02:06:59.259Z,13.3
2016-08-05T02:07:09.267Z,13.3
2016-08-05T02:07:20.026Z,13.3
2016-08-05T02:07:29.277Z,13.3
2016-08-05T02:07:39.285Z,13.3
2016-08-05T02:07:49.292Z,13.3
2016-08-05T02:07:59.297Z,13.3
2016-08-05T02:08:09.303Z,13.3
2016-08-05T02:08:19.307Z,13.3
2016-08-05T02:08:29.318Z,13.3
2016-08-05T02:08:39.327Z,13.3
2016-08-05T02:08:49.332Z,13.3
2016-08-05T02:09:00.087Z,13.3
2016-08-05T02:09:09.351Z,13.3
2016-08-05T02:09:19.355Z,13.3
2016-08-05T02:09:29.359Z,13.2
2016-08-05T02:09:39.365Z,13.3
2016-08-05T02:09:49.370Z,13.3
2016-08-05T02:09:59.378Z,13.3
2016-08-05T02:10:10.137Z,13.2
2016-08-05T02:10:19.397Z,13.3
2016-08-05T02:10:40.157Z,13.2
2016-08-05T02:10:49.407Z,13.1
2016-08-05T02:10:59.416Z,13.3
2016-08-05T02:11:09.423Z,13.2
2016-08-05T02:11:19.428Z,13.2
2016-08-05T02:11:29.434Z,13.2
2016-08-05T02:11:39.448Z,13.2
2016-08-05T02:11:51.400Z,13.2
2016-08-05T02:11:59.455Z,13.2
2016-08-05T02:12:10.213Z,13.2
2016-08-05T02:12:20.220Z,13.2
2016-08-05T02:12:29.490Z,13.1
2016-08-05T02:12:39.481Z,13.2
2016-08-05T02:12:49.486Z,13.3
2016-08-05T02:12:59.494Z,13.2
2016-08-05T02:13:09.500Z,13.3
2016-08-05T02:13:19.508Z,13.3
2016-08-05T02:13:29.517Z,13.2
2016-08-05T02:13:39.518Z,13.1
2016-08-05T02:13:49.526Z,13.2
2016-08-05T02:13:59.535Z,13.1
2016-08-05T02:14:09.538Z,13.2
2016-08-05T02:14:20.297Z,13.2
2016-08-05T02:14:29.553Z,13.2
2016-08-05T02:14:39.559Z,13.2
2016-08-05T02:14:50.316Z,13.3
2016-08-05T02:14:59.576Z,13.3
2016-08-05T02:15:10.332Z,13.2
2016-08-05T02:15:19.586Z,13.3
2016-08-05T02:15:29.590Z,13.2
2016-08-05T02:15:39.613Z,13.3